createdAt,value
2018-05-09T00:01:43.638Z,17.20
2018-05-09T00:04:13.320Z,17.10
2018-05-09T00:06:42.999Z,17.10
2018-05-09T00:09:13.436Z,17.10
2018-05-09T00:11:42.334Z,17.20
2018-05-09T00:14:12.385Z,17.20
2018-05-09T00:16:41.313Z,17.20
2018-05-09T00:21:40.273Z,17.10
2018-05-09T00:24:09.567Z,17.10
2018-05-09T00:26:38.879Z,17.10
2018-05-09T00:29:09.286Z,17.10
2018-05-09T00:31:38.229Z,17.10
2018-05-09T00:36:37.177Z,17.10
2018-05-09T00:39:07.237Z,17.10
2018-05-09T00:41:36.606Z,17.10
2018-05-09T00:46:35.539Z,17.00
2018-05-09T00:49:05.594Z,17.00
2018-05-09T00:51:34.623Z,16.90
2018-05-09T00:54:15.260Z,16.90
2018-05-09T00:56:44.195Z,16.90
2018-05-09T00:59:13.858Z,16.80
2018-05-09T01:01:43.549Z,16.70
2018-05-09T01:06:42.912Z,16.80
2018-05-09T01:11:42.652Z,16.80
2018-05-09T01:14:11.558Z,16.80
2018-05-09T01:16:41.617Z,16.70
2018-05-09T01:19:10.526Z,16.70
2018-05-09T01:21:39.868Z,16.70
2018-05-09T01:24:09.540Z,16.70
2018-05-09T01:26:38.448Z,16.70
2018-05-09T01:31:38.172Z,16.70
2018-05-09T01:34:07.083Z,16.80
2018-05-09T01:36:36.776Z,16.70
2018-05-09T01:39:06.446Z,16.70
2018-05-09T01:41:35.363Z,16.70
2018-05-09T01:46:35.106Z,16.70
2018-05-09T01:49:03.999Z,16.70
2018-05-09T01:54:03.344Z,16.70
2018-05-09T01:56:32.656Z,16.60
2018-05-09T01:59:02.326Z,16.60
2018-05-09T02:01:32.008Z,16.60
2018-05-09T02:04:00.928Z,16.60
2018-05-09T02:06:30.589Z,16.60
2018-05-09T02:08:59.503Z,16.60
2018-05-09T02:11:28.428Z,16.60
2018-05-09T02:16:27.397Z,16.50
2018-05-09T02:18:56.306Z,16.50
2018-05-09T02:21:25.704Z,16.50
2018-05-09T02:26:24.653Z,16.50
2018-05-09T02:28:54.557Z,16.40
2018-05-09T02:31:24.237Z,16.50
2018-05-09T02:33:53.556Z,16.40
2018-05-09T02:38:55.070Z,16.30
2018-05-09T02:41:25.470Z,16.30
2018-05-09T02:43:54.389Z,16.30
2018-05-09T02:46:23.278Z,16.20
2018-05-09T02:48:52.200Z,16.30
2018-05-09T02:51:21.737Z,16.30
2018-05-09T02:53:50.666Z,16.20
2018-05-09T02:56:19.683Z,17.30
2018-05-09T02:58:48.989Z,16.20
2018-05-09T03:01:18.666Z,16.20
2018-05-09T03:03:49.087Z,16.10
2018-05-09T03:06:17.989Z,16.20
2018-05-09T03:08:47.709Z,16.20
2018-05-09T03:11:16.702Z,16.20
2018-05-09T03:16:15.670Z,16.10
2018-05-09T03:26:14.743Z,16.00
2018-05-09T03:28:44.065Z,16.00
2018-05-09T03:31:12.977Z,16.00
2018-05-09T03:33:41.909Z,16.00
2018-05-09T03:36:10.926Z,15.90
2018-05-09T03:38:39.829Z,15.90
2018-05-09T03:41:08.730Z,15.90
2018-05-09T03:43:37.662Z,15.90
2018-05-09T03:46:08.082Z,15.90
2018-05-09T03:48:37.412Z,15.90
2018-05-09T03:51:07.452Z,15.90
2018-05-09T03:53:36.414Z,15.80
2018-05-09T03:56:06.088Z,15.80
2018-05-09T03:58:35.016Z,15.80
2018-05-09T04:01:04.676Z,15.70
2018-05-09T04:03:45.320Z,15.70
2018-05-09T04:06:26.616Z,15.70
2018-05-09T04:09:08.152Z,15.70
2018-05-09T04:11:37.822Z,15.70
2018-05-09T04:14:07.522Z,15.80
2018-05-09T04:16:37.210Z,15.70
2018-05-09T04:19:07.264Z,15.70
2018-05-09T04:21:36.574Z,15.70
2018-05-09T04:26:36.378Z,15.70
2018-05-09T04:31:35.335Z,15.90
2018-05-09T04:36:34.304Z,15.90
2018-05-09T04:39:03.336Z,16.00
2018-05-09T04:41:33.004Z,16.10
2018-05-09T04:44:02.801Z,16.20
2018-05-09T04:46:31.716Z,16.30
2018-05-09T04:49:00.900Z,16.30
2018-05-09T04:51:29.824Z,16.40
2018-05-09T04:56:28.780Z,16.50
2018-05-09T04:58:57.686Z,16.60
2018-05-09T05:01:26.608Z,16.50
2018-05-09T05:03:55.539Z,16.60
2018-05-09T05:06:24.493Z,16.70
2018-05-09T05:08:54.890Z,16.70
2018-05-09T05:11:24.604Z,16.70
2018-05-09T05:13:53.518Z,16.90
2018-05-09T05:16:22.431Z,17.00
2018-05-09T05:18:51.727Z,17.10
2018-05-09T05:21:22.161Z,17.10
2018-05-09T05:23:51.465Z,17.20
2018-05-09T05:26:20.383Z,17.30
2018-05-09T05:28:50.065Z,17.30
2018-05-09T05:31:18.993Z,17.40
2018-05-09T05:33:48.669Z,17.40
2018-05-09T05:36:17.585Z,17.50
2018-05-09T05:38:47.640Z,17.70
2018-05-09T05:41:17.317Z,17.70
2018-05-09T05:43:47.367Z,17.80
2018-05-09T05:46:17.069Z,17.90
2018-05-09T05:48:46.469Z,17.90
2018-05-09T05:51:15.768Z,18.00
2018-05-09T05:56:14.713Z,18.30
2018-05-09T05:58:43.631Z,18.40
2018-05-09T06:01:12.551Z,18.50
2018-05-09T06:03:42.232Z,18.50
2018-05-09T06:06:12.072Z,18.60
2018-05-09T06:08:40.979Z,18.60
2018-05-09T06:11:10.656Z,18.70
2018-05-09T06:13:40.348Z,18.70
2018-05-09T06:18:39.779Z,19.10
2018-05-09T06:21:08.684Z,19.20
2018-05-09T06:23:38.371Z,19.10
2018-05-09T06:26:07.292Z,19.30
2018-05-09T06:31:06.673Z,19.50
2018-05-09T06:33:35.596Z,19.60
2018-05-09T06:36:04.514Z,19.70
2018-05-09T06:41:03.488Z,19.80
2018-05-09T06:46:03.602Z,20.00
2018-05-09T06:48:32.522Z,20.20
2018-05-09T06:51:02.322Z,20.20
2018-05-09T06:53:32.357Z,20.20
2018-05-09T06:56:01.263Z,20.40
2018-05-09T06:58:30.948Z,20.50
2018-05-09T07:00:59.857Z,20.60
2018-05-09T07:05:58.843Z,20.80
2018-05-09T07:08:28.943Z,20.90
2018-05-09T07:10:58.555Z,21.10
2018-05-09T07:13:28.244Z,21.20
2018-05-09T07:15:57.218Z,21.30
2018-05-09T07:18:27.231Z,21.40
2018-05-09T07:20:56.544Z,21.50
2018-05-09T07:23:25.449Z,21.60
2018-05-09T07:25:54.366Z,21.70
2018-05-09T07:28:24.051Z,21.60
2018-05-09T07:30:52.973Z,21.80
2018-05-09T07:33:21.893Z,21.90
2018-05-09T07:35:50.801Z,22.00
2018-05-09T07:38:20.103Z,22.00
2018-05-09T07:40:49.022Z,22.30
2018-05-09T07:43:18.340Z,22.40
2018-05-09T07:45:47.244Z,22.60
2018-05-09T07:48:16.574Z,22.60
2018-05-09T07:50:45.495Z,22.60
2018-05-09T07:53:15.155Z,22.70
2018-05-09T07:55:44.094Z,22.90
2018-05-09T07:58:12.997Z,23.00
2018-05-09T08:00:41.913Z,23.10
2018-05-09T08:03:10.835Z,23.30
2018-05-09T08:05:39.741Z,23.30
2018-05-09T08:08:10.283Z,23.40
2018-05-09T08:10:39.184Z,23.50
2018-05-09T08:13:08.876Z,23.40
2018-05-09T08:15:37.784Z,23.60
2018-05-09T08:18:07.476Z,19.40
2018-05-09T08:20:36.370Z,23.70
2018-05-09T08:23:06.080Z,23.90
2018-05-09T08:25:35.400Z,24.00
2018-05-09T08:28:04.315Z,24.00
2018-05-09T08:30:33.612Z,24.20
2018-05-09T08:33:02.530Z,24.30
2018-05-09T08:35:32.965Z,24.50
2018-05-09T08:38:01.888Z,24.70
2018-05-09T08:40:30.830Z,24.60
2018-05-09T08:43:01.294Z,24.70
2018-05-09T08:45:30.994Z,24.80
2018-05-09T08:48:00.664Z,24.90
2018-05-09T08:50:29.588Z,24.90
2018-05-09T08:53:00.400Z,24.90
2018-05-09T08:55:29.415Z,25.10
2018-05-09T08:57:58.254Z,25.20
2018-05-09T09:00:27.155Z,25.20
2018-05-09T09:02:56.082Z,25.40
2018-05-09T09:05:25.774Z,25.50
2018-05-09T09:07:54.676Z,25.50
2018-05-09T09:10:23.600Z,25.60
2018-05-09T09:12:52.510Z,25.70
2018-05-09T09:15:21.470Z,25.70
2018-05-09T09:17:51.140Z,25.80
2018-05-09T09:20:20.063Z,26.10
2018-05-09T09:22:49.720Z,26.20
2018-05-09T09:25:18.639Z,26.30
2018-05-09T09:27:48.314Z,26.30
2018-05-09T09:30:17.222Z,26.10
2018-05-09T09:32:46.145Z,25.80
2018-05-09T09:35:16.108Z,26.00
2018-05-09T09:37:45.789Z,26.20
2018-05-09T09:40:15.104Z,26.40
2018-05-09T09:42:44.004Z,26.50
2018-05-09T09:45:12.944Z,26.70
2018-05-09T09:47:42.618Z,26.80
2018-05-09T09:50:11.540Z,27.10
2018-05-09T09:52:40.461Z,27.20
2018-05-09T09:55:09.758Z,27.40
2018-05-09T09:57:39.418Z,27.50
2018-05-09T10:00:09.694Z,27.60
2018-05-09T10:02:38.612Z,27.70
2018-05-09T10:05:07.540Z,27.50
2018-05-09T10:07:36.456Z,27.50
2018-05-09T10:10:05.376Z,27.60
2018-05-09T10:12:34.288Z,27.80
2018-05-09T10:15:03.622Z,28.00
2018-05-09T10:17:33.301Z,28.00
2018-05-09T10:20:02.586Z,28.10
2018-05-09T10:22:31.539Z,28.90
2018-05-09T10:25:00.852Z,28.40
2018-05-09T10:27:29.774Z,28.30
2018-05-09T10:29:58.690Z,28.50
2018-05-09T10:32:28.380Z,28.50
2018-05-09T10:34:57.280Z,28.70
2018-05-09T10:37:26.974Z,28.90
2018-05-09T10:42:26.710Z,29.20
2018-05-09T10:44:55.619Z,29.20
2018-05-09T10:47:25.312Z,29.40
2018-05-09T10:49:54.998Z,29.50
2018-05-09T10:52:23.925Z,29.60
2018-05-09T10:54:53.584Z,29.80
2018-05-09T10:57:22.510Z,29.60
2018-05-09T11:02:21.494Z,29.80
2018-05-09T11:07:20.479Z,30.20
2018-05-09T11:09:49.381Z,30.50
2018-05-09T11:12:18.295Z,30.80
2018-05-09T11:14:47.201Z,31.30
2018-05-09T11:17:16.888Z,31.40
2018-05-09T11:19:46.555Z,31.50
2018-05-09T11:22:15.506Z,31.90
2018-05-09T11:24:45.210Z,32.10
2018-05-09T11:27:14.104Z,32.10
2018-05-09T11:29:43.776Z,32.40
2018-05-09T11:32:12.699Z,32.70
2018-05-09T11:34:42.369Z,32.80
2018-05-09T15:00:00.722Z,31.60
2018-05-09T15:02:29.641Z,31.30
2018-05-09T15:04:58.568Z,31.40
2018-05-09T15:07:27.682Z,31.50
2018-05-09T15:09:57.347Z,31.50
2018-05-09T15:12:26.251Z,31.60
2018-05-09T15:14:55.943Z,31.70
2018-05-09T15:17:24.859Z,31.50
2018-05-09T15:19:53.766Z,31.20
2018-05-09T15:22:22.695Z,31.10
2018-05-09T15:24:51.607Z,30.90
2018-05-09T15:27:20.537Z,30.70
2018-05-09T15:29:50.202Z,30.60
2018-05-09T15:32:20.639Z,30.60
2018-05-09T15:34:50.381Z,30.60
2018-05-09T15:37:19.674Z,30.40
2018-05-09T15:39:48.578Z,30.10
2018-05-09T15:44:48.703Z,30.30
2018-05-09T15:47:18.415Z,30.40
2018-05-09T15:49:47.328Z,30.30
2018-05-09T15:57:17.148Z,30.20
2018-05-09T15:59:47.183Z,30.30
2018-05-09T16:02:16.133Z,30.30
2018-05-09T16:04:45.038Z,30.30
2018-05-09T16:07:14.738Z,30.40
2018-05-09T16:09:43.642Z,30.50
2018-05-09T16:12:13.328Z,30.60
2018-05-09T16:17:13.062Z,30.70
2018-05-09T16:19:42.401Z,30.80
2018-05-09T16:24:41.365Z,30.80
2018-05-09T16:27:10.288Z,30.80
2018-05-09T16:32:10.760Z,30.60
2018-05-09T16:34:40.822Z,30.50
2018-05-09T16:37:09.763Z,30.30
2018-05-09T16:39:39.442Z,30.40
2018-05-09T16:42:08.342Z,30.30
2018-05-09T16:44:38.399Z,30.10
2018-05-09T16:47:08.092Z,30.10
2018-05-09T16:52:07.561Z,29.90
2018-05-09T16:54:36.450Z,29.80
2018-05-09T16:57:06.262Z,29.70
2018-05-09T16:59:35.148Z,29.60
2018-05-09T17:02:04.826Z,29.60
2018-05-09T17:04:33.756Z,29.60
2018-05-09T17:07:03.441Z,29.40
2018-05-09T17:09:32.353Z,29.40
2018-05-09T17:12:02.157Z,29.50
2018-05-09T17:17:03.199Z,29.50
2018-05-09T17:19:32.514Z,29.70
2018-05-09T17:22:18.824Z,29.80
2018-05-09T17:24:48.507Z,30.00
2018-05-09T17:27:17.452Z,29.90
2018-05-09T17:32:16.522Z,29.90
2018-05-09T17:34:45.442Z,29.80
2018-05-09T17:37:14.359Z,29.50
2018-05-09T17:39:43.688Z,29.50
2018-05-09T17:42:12.605Z,29.60
2018-05-09T17:44:42.665Z,29.60
2018-05-09T17:52:12.484Z,29.50
2018-05-09T17:54:41.408Z,29.30
2018-05-09T17:57:10.333Z,29.00
2018-05-09T17:59:40.017Z,28.80
2018-05-09T18:04:39.401Z,28.40
2018-05-09T18:07:08.311Z,28.20
2018-05-09T18:09:38.383Z,27.90
2018-05-09T18:12:07.295Z,27.70
2018-05-09T18:14:36.215Z,27.60
2018-05-09T18:17:05.893Z,27.40
2018-05-09T18:19:34.824Z,27.30
2018-05-09T18:22:04.120Z,27.20
2018-05-09T18:24:33.427Z,27.00
2018-05-09T18:29:32.401Z,26.70
2018-05-09T18:34:31.365Z,26.60
2018-05-09T18:37:01.061Z,26.40
2018-05-09T18:39:29.974Z,26.30
2018-05-09T18:41:59.284Z,26.30
2018-05-09T18:46:59.747Z,26.10
2018-05-09T18:49:28.673Z,26.10
2018-05-09T18:54:27.706Z,25.90
2018-05-09T18:56:56.550Z,25.80
2018-05-09T19:01:55.534Z,25.50
2018-05-09T19:04:24.473Z,25.30
2018-05-09T19:06:54.150Z,25.20
2018-05-09T19:09:23.467Z,24.90
2018-05-09T19:11:52.380Z,24.90
2018-05-09T19:14:22.086Z,24.80
2018-05-09T19:16:51.745Z,24.60
2018-05-09T19:19:21.458Z,24.60
2018-05-09T19:21:50.366Z,24.50
2018-05-09T19:24:19.288Z,24.40
2018-05-09T19:26:48.972Z,24.30
2018-05-09T19:29:18.670Z,24.20
2018-05-09T19:31:48.349Z,24.20
2018-05-09T19:34:17.305Z,24.00
2018-05-09T19:36:46.224Z,23.90
2018-05-09T19:41:45.241Z,23.70
2018-05-09T19:44:14.501Z,23.60
2018-05-09T19:46:44.199Z,23.50
2018-05-09T19:49:13.499Z,23.40
2018-05-09T19:51:43.193Z,23.40
2018-05-09T19:54:13.334Z,23.40
2018-05-09T19:59:12.349Z,23.20
2018-05-09T20:01:41.646Z,23.20
2018-05-09T20:04:11.337Z,23.20
2018-05-09T20:06:41.023Z,23.10
2018-05-09T20:11:40.407Z,22.90
2018-05-09T20:14:10.477Z,22.80
2018-05-09T20:16:39.375Z,22.70
2018-05-09T20:19:09.434Z,22.70
2018-05-09T20:21:38.356Z,22.70
2018-05-09T20:26:39.758Z,22.40
2018-05-09T20:34:20.456Z,22.30
2018-05-09T20:36:50.250Z,22.30
2018-05-09T20:39:19.141Z,22.20
2018-05-09T20:41:49.596Z,22.10
2018-05-09T20:44:19.292Z,22.00
2018-05-09T20:49:18.794Z,21.90
2018-05-09T20:51:51.181Z,21.90
2018-05-09T20:54:20.500Z,21.90
2018-05-09T20:56:49.442Z,21.90
2018-05-09T20:59:18.357Z,21.80
2018-05-09T21:01:49.201Z,21.70
2018-05-09T21:04:18.528Z,21.70
2018-05-09T21:06:47.442Z,21.60
2018-05-09T21:11:58.358Z,21.60
2018-05-09T21:14:27.281Z,21.50
2018-05-09T21:16:56.238Z,21.40
2018-05-09T21:19:25.166Z,21.40
2018-05-09T21:21:54.090Z,21.30
2018-05-09T21:24:23.004Z,21.30
2018-05-09T21:26:51.926Z,21.30
2018-05-09T21:31:50.885Z,21.20
2018-05-09T21:44:20.411Z,21.20
2018-05-09T21:46:51.230Z,21.10
2018-05-09T21:49:20.525Z,21.10
2018-05-09T21:51:50.609Z,21.10
2018-05-09T21:56:51.715Z,21.00
2018-05-09T22:01:51.135Z,21.00
2018-05-09T22:04:21.555Z,20.90
2018-05-09T22:06:50.486Z,20.90
2018-05-09T22:09:20.171Z,20.80
2018-05-09T22:14:19.581Z,20.80
2018-05-09T22:16:48.499Z,20.70
2018-05-09T22:19:18.538Z,20.80
2018-05-09T22:24:18.396Z,20.70
2018-05-09T22:26:47.713Z,20.70
2018-05-09T22:31:47.085Z,20.50
2018-05-09T22:34:16.826Z,20.50
2018-05-09T22:36:45.693Z,20.50
2018-05-09T22:41:45.441Z,20.50
2018-05-09T22:44:14.351Z,20.50
2018-05-09T22:46:43.657Z,20.40
2018-05-09T22:51:43.778Z,20.40
2018-05-09T22:54:13.462Z,20.50
2018-05-09T22:56:42.394Z,20.40
2018-05-09T22:59:12.459Z,20.40
2018-05-09T23:04:11.414Z,20.40
2018-05-09T23:09:13.740Z,20.40
2018-05-09T23:11:43.414Z,20.30
2018-05-09T23:14:12.336Z,20.30
2018-05-09T23:28:15.812Z,20.10
2018-05-09T23:30:46.274Z,20.10
2018-05-09T23:33:15.193Z,20.10
2018-05-09T23:38:14.215Z,20.00
2018-05-09T23:40:43.212Z,20.00
2018-05-09T23:43:12.463Z,20.00
2018-05-09T23:45:41.764Z,19.90
2018-05-09T23:48:11.833Z,19.90
2018-05-09T23:53:10.821Z,19.80
2018-05-09T23:55:40.531Z,19.80
2018-05-09T23:58:10.205Z,19.80
